| Date | Time | Temp. (oF) | Dew Point (oF) | Rel. Hum. (%) | Press. (in.) | Wind Dir. | Wind Speed (mph) | Hourly Rainfall (in.) |
|
|---|---|---|---|---|---|---|---|---|---|
| 1 | 07/09 | 00:00 | 78 | 69 | 75 | 29.99 | SW | 2 | 0.00 |
| 2 | 07/08 | 23:00 | 79 | 70 | 76 | 29.99 | SSW | 2 | 0.00 |
| 3 | 07/08 | 22:00 | 80 | 71 | 76 | 29.97 | S | 3 | 0.00 |
| 4 | 07/08 | 21:00 | 81 | 71 | 72 | 29.95 | S | 4 | 0.00 |
| 5 | 07/08 | 20:00 | 84 | 72 | 69 | 29.93 | SSW | 4 | 0.00 |
| 6 | 07/08 | 19:00 | 87 | 74 | 66 | 29.92 | SE | 4 | 0.00 |
| 7 | 07/08 | 18:00 | 87 | 73 | 65 | 29.92 | S | 6 | 0.00 |
| 8 | 07/08 | 17:00 | 87 | 73 | 64 | 29.93 | SSE | 5 | 0.00 |
| 9 | 07/08 | 16:00 | 90 | 74 | 60 | 29.93 | S | 2 | 0.00 |
| 10 | 07/08 | 15:00 | 94 | 75 | 56 | 29.94 | WSW | 6 | 0.00 |
| 11 | 07/08 | 14:00 | 95 | 75 | 54 | 29.95 | SSW | 5 | 0.00 |
| 12 | 07/08 | 13:00 | 93 | 73 | 53 | 29.97 | SW | 4 | 0.00 |
| 13 | 07/08 | 12:00 | 91 | 75 | 61 | 29.98 | S | 6 | 0.00 |
| 14 | 07/08 | 11:00 | 90 | 75 | 63 | 30.00 | SSW | 3 | 0.00 |
| 15 | 07/08 | 10:00 | 87 | 76 | 71 | 30.00 | SSE | 6 | 0.00 |
| 16 | 07/08 | 09:00 | 83 | 76 | 81 | 30.01 | SE | 2 | 0.00 |
| 17 | 07/08 | 08:00 | 79 | 75 | 90 | 30.00 | WSW | 1 | 0.00 |
| 18 | 07/08 | 07:00 | 75 | 73 | 95 | 30.00 | S | 0 | 0.00 |
| 19 | 07/08 | 06:00 | 75 | 72 | 93 | 29.99 | SSE | 0 | 0.00 |
| 20 | 07/08 | 05:00 | 77 | 73 | 89 | 29.99 | N | 0 | 0.00 |
| 21 | 07/08 | 04:00 | 77 | 73 | 88 | 29.97 | ESE | 1 | 0.00 |
| 22 | 07/08 | 03:00 | 78 | 72 | 83 | 29.98 | N | 0 | 0.00 |
| 23 | 07/08 | 02:00 | 80 | 72 | 79 | 29.99 | N | 0 | 0.00 |
| 24 | 07/08 | 01:00 | 82 | 72 | 73 | 29.99 | NNW | 1 | 0.00 |